Time;durP1;ratioP1;P1;durP2;ratioP2;P2;SDS_P1;SDS_P2;PMS_P1;PMS_P2;Temp;Humidity;BMP_temperature;BMP_pressure;BME280_temperature;BME280_humidity;BME280_pressure;Samples;Min_cycle;Max_cycle;Signal;HPM_P1;HPM_P2
2023/08/15 00:00:19;;;;;;;7.90;2.80;;;;;;;20.58;71.21;100449.35;110095;1278;22246;-59
2023/08/15 00:03:10;;;;;;;14.20;3.70;;;;;;;20.54;71.18;100448.19;110092;1278;22219;-60
2023/08/15 00:05:41;;;;;;;11.50;4.20;;;;;;;20.52;71.19;100442.02;110117;1267;22192;-59
2023/08/15 00:08:12;;;;;;;13.00;3.90;;;;;;;20.51;71.35;100437.92;110140;1278;22199;-58
2023/08/15 00:10:43;;;;;;;11.50;3.20;;;;;;;20.50;71.50;100440.38;110109;1278;22207;-58
2023/08/15 00:13:13;;;;;;;10.60;3.50;;;;;;;20.48;71.58;100440.45;110112;1277;22440;-59
2023/08/15 00:15:44;;;;;;;13.40;4.10;;;;;;;20.48;71.74;100442.80;110129;1278;22259;-60
2023/08/15 00:18:15;;;;;;;11.10;3.30;;;;;;;20.46;71.82;100436.90;110131;1278;22280;-59
2023/08/15 00:20:48;;;;;;;13.30;3.80;;;;;;;20.44;71.92;100432.67;110103;1278;22174;-60
2023/08/15 00:23:20;;;;;;;15.90;3.70;;;;;;;20.42;72.13;100430.93;110127;1278;22881;-57
2023/08/15 00:25:50;;;;;;;9.00;2.80;;;;;;;20.40;72.18;100430.71;110087;1278;23589;-58
2023/08/15 00:28:21;;;;;;;11.50;2.70;;;;;;;20.36;72.27;100426.66;110077;1271;22395;-59
2023/08/15 00:30:52;;;;;;;11.60;2.70;;;;;;;20.35;72.33;100425.03;110106;1267;22291;-60
2023/08/15 00:33:23;;;;;;;14.60;3.30;;;;;;;20.34;72.42;100425.93;110120;1278;22252;-60
2023/08/15 00:35:54;;;;;;;9.90;3.00;;;;;;;20.33;72.48;100427.23;110118;1278;22220;-59
2023/08/15 00:38:25;;;;;;;12.50;3.30;;;;;;;20.34;72.52;100426.61;110106;1278;22351;-59
2023/08/15 00:40:56;;;;;;;10.80;3.00;;;;;;;20.32;72.66;100422.81;110102;1271;22296;-59
2023/08/15 00:43:27;;;;;;;13.50;2.90;;;;;;;20.29;72.75;100426.73;110092;1271;22406;-60
2023/08/15 00:45:58;;;;;;;16.20;3.40;;;;;;;20.29;72.90;100428.20;110112;1278;22149;-59
2023/08/15 00:48:30;;;;;;;11.40;2.80;;;;;;;20.27;72.89;100426.16;110118;1278;22165;-59
2023/08/15 00:51:01;;;;;;;9.70;2.80;;;;;;;20.26;72.95;100425.77;110103;1277;22366;-58
2023/08/15 00:53:35;;;;;;;11.10;2.90;;;;;;;20.25;73.07;100421.98;110113;1278;22232;-58
2023/08/15 00:56:07;;;;;;;12.00;3.30;;;;;;;20.24;73.25;100423.68;110106;1278;22172;-60
2023/08/15 00:58:39;;;;;;;12.20;2.70;;;;;;;20.24;73.27;100418.84;110127;1278;22229;-60
2023/08/15 01:01:11;;;;;;;10.70;3.40;;;;;;;20.23;73.44;100417.45;110111;1278;22132;-58
2023/08/15 01:03:42;;;;;;;14.10;3.00;;;;;;;20.21;73.41;100408.74;110098;1271;22211;-59
2023/08/15 01:06:13;;;;;;;14.70;2.90;;;;;;;20.20;73.47;100404.67;110118;1267;23670;-61
2023/08/15 01:08:44;;;;;;;13.10;3.10;;;;;;;20.19;73.40;100403.07;110118;1278;22221;-59
2023/08/15 01:11:15;;;;;;;11.40;3.00;;;;;;;20.18;73.46;100402.67;110108;1271;22904;-61
2023/08/15 01:13:53;;;;;;;11.90;3.50;;;;;;;20.18;73.47;100408.48;110096;1276;22191;-59
2023/08/15 01:16:28;;;;;;;11.90;2.90;;;;;;;20.18;73.67;100410.14;110077;1278;23405;-60
2023/08/15 01:19:06;;;;;;;9.60;2.60;;;;;;;20.15;73.58;100405.49;110106;1271;22288;-59
2023/08/15 01:21:48;;;;;;;13.90;2.60;;;;;;;20.14;73.72;100404.03;110121;1278;22178;-60
2023/08/15 01:24:19;;;;;;;16.90;3.20;;;;;;;20.12;73.69;100401.48;110108;1278;22984;-59
2023/08/15 01:26:50;;;;;;;10.30;2.60;;;;;;;20.10;73.85;100398.75;110100;1278;22382;-59
2023/08/15 01:29:21;;;;;;;11.10;3.50;;;;;;;20.07;73.89;100398.28;110100;1278;22387;-60
2023/08/15 01:32:10;;;;;;;14.30;3.10;;;;;;;20.04;73.97;100399.68;110126;1267;22211;-58
2023/08/15 01:34:47;;;;;;;13.40;3.30;;;;;;;20.01;74.03;100403.52;110112;1278;22182;-59
2023/08/15 01:37:27;;;;;;;8.30;2.50;;;;;;;19.99;73.98;100400.52;110092;1265;22212;-59
2023/08/15 01:40:02;;;;;;;12.70;2.40;;;;;;;19.95;74.13;100405.69;110098;1278;22258;-57
2023/08/15 01:42:34;;;;;;;9.00;2.20;;;;;;;19.92;74.19;100407.10;110104;1278;22158;-59
2023/08/15 01:45:06;;;;;;;11.70;2.60;;;;;;;19.88;74.25;100409.30;110104;1278;22213;-59
2023/08/15 01:47:37;;;;;;;8.50;2.80;;;;;;;19.86;74.16;100412.23;110109;1278;22227;-59
2023/08/15 01:50:10;;;;;;;10.50;2.30;;;;;;;19.85;74.27;100415.95;110132;1264;22208;-60
2023/08/15 01:52:41;;;;;;;10.90;2.30;;;;;;;19.83;74.29;100413.05;110108;1278;22330;-59
2023/08/15 01:55:14;;;;;;;7.10;2.60;;;;;;;19.82;74.46;100415.34;110104;1278;22181;-59
2023/08/15 01:57:45;;;;;;;11.30;2.60;;;;;;;19.79;74.37;100412.29;110066;1278;22189;-57
2023/08/15 02:00:16;;;;;;;10.10;2.50;;;;;;;19.78;74.48;100415.98;110105;1275;22149;-61
2023/08/15 02:02:47;;;;;;;11.00;2.70;;;;;;;19.75;74.56;100417.97;110142;1276;22158;-58
2023/08/15 02:05:18;;;;;;;10.50;3.20;;;;;;;19.73;74.60;100416.72;110120;1276;22319;-60
2023/08/15 02:07:49;;;;;;;11.90;2.40;;;;;;;19.69;74.70;100417.74;110147;1276;22452;-60
2023/08/15 02:10:19;;;;;;;10.90;2.80;;;;;;;19.67;74.69;100419.90;110144;1278;22235;-58
2023/08/15 02:12:50;;;;;;;9.70;2.40;;;;;;;19.66;74.68;100425.20;110120;1278;22278;-58
2023/08/15 02:15:21;;;;;;;11.20;2.80;;;;;;;19.65;74.82;100424.15;110112;1278;22528;-60
2023/08/15 02:17:52;;;;;;;7.70;2.40;;;;;;;19.63;74.70;100419.02;110124;1278;22354;-61
2023/08/15 02:20:23;;;;;;;10.50;3.00;;;;;;;19.62;74.74;100418.16;110098;1267;23085;-61
2023/08/15 02:22:54;;;;;;;13.30;3.00;;;;;;;19.61;74.84;100414.38;110115;1278;22167;-61
2023/08/15 02:25:25;;;;;;;12.90;2.60;;;;;;;19.59;74.76;100413.38;110117;1278;22544;-59
2023/08/15 02:27:56;;;;;;;10.30;3.30;;;;;;;19.59;74.86;100413.84;110093;1271;23007;-58
2023/08/15 02:30:27;;;;;;;12.60;3.30;;;;;;;19.56;74.91;100410.85;110090;1277;22316;-59
2023/08/15 02:32:58;;;;;;;8.50;2.60;;;;;;;19.54;74.93;100414.59;110103;1271;22191;-59
2023/08/15 02:35:29;;;;;;;9.40;2.80;;;;;;;19.49;75.08;100413.35;110092;1271;23080;-58
2023/08/15 02:38:00;;;;;;;11.00;2.70;;;;;;;19.46;75.01;100416.05;110096;1277;22249;-58
2023/08/15 02:40:30;;;;;;;11.10;3.00;;;;;;;19.44;74.99;100413.60;110075;1276;22349;-58
2023/08/15 02:43:01;;;;;;;10.00;2.50;;;;;;;19.41;75.03;100409.30;110094;1278;23098;-61
2023/08/15 02:45:32;;;;;;;7.20;2.40;;;;;;;19.37;75.13;100409.16;110100;1278;22986;-60
2023/08/15 02:48:03;;;;;;;8.00;2.50;;;;;;;19.34;75.13;100404.71;110144;1268;22229;-59
2023/08/15 02:50:34;;;;;;;11.80;2.70;;;;;;;19.30;75.25;100402.73;110122;1278;22275;-59
2023/08/15 02:53:06;;;;;;;11.00;2.80;;;;;;;19.26;75.32;100403.32;110116;1278;22207;-58
2023/08/15 02:55:36;;;;;;;9.30;2.20;;;;;;;19.20;75.33;100411.16;110104;1276;22338;-59
2023/08/15 02:58:07;;;;;;;10.10;3.00;;;;;;;19.14;75.43;100417.02;110081;1278;22331;-58
2023/08/15 03:00:38;;;;;;;8.50;2.30;;;;;;;19.07;75.67;100422.50;110089;1274;23020;-59
2023/08/15 03:03:09;;;;;;;7.60;2.40;;;;;;;19.02;75.76;100422.82;110131;1278;23353;-58
2023/08/15 03:05:41;;;;;;;10.00;2.90;;;;;;;18.99;75.69;100420.86;110118;1278;22977;-58
2023/08/15 03:08:11;;;;;;;11.60;2.50;;;;;;;18.94;75.85;100422.41;110128;1267;22246;-58
2023/08/15 03:10:42;;;;;;;8.20;2.50;;;;;;;18.88;75.96;100421.15;110115;1278;22135;-57
2023/08/15 03:13:13;;;;;;;10.10;3.00;;;;;;;18.84;75.90;100421.14;110121;1279;22228;-60
2023/08/15 03:15:53;;;;;;;14.20;3.30;;;;;;;18.81;76.08;100422.77;110055;1271;22231;-58
2023/08/15 03:18:23;;;;;;;;;;;;;;;18.76;76.20;100421.64;110127;1276;22413;-62
2023/08/15 03:21:02;;;;;;;8.90;3.10;;;;;;;18.71;76.19;100425.20;110096;1278;22206;-60
2023/08/15 03:23:34;;;;;;;8.50;2.90;;;;;;;18.67;76.33;100419.03;110098;1278;22248;-59
2023/08/15 03:26:07;;;;;;;11.70;3.30;;;;;;;18.63;76.47;100422.52;110114;1276;22201;-59
2023/08/15 03:28:37;;;;;;;13.90;3.50;;;;;;;18.58;76.70;100427.34;110128;1276;23068;-59
2023/08/15 03:31:09;;;;;;;14.20;3.20;;;;;;;18.52;76.81;100428.48;110120;1278;22221;-60
2023/08/15 03:33:40;;;;;;;11.40;3.20;;;;;;;18.49;76.99;100428.30;110133;1275;22529;-60
2023/08/15 03:36:11;;;;;;;12.00;3.30;;;;;;;18.46;77.05;100430.55;110107;1278;22239;-59
2023/08/15 03:38:42;;;;;;;14.80;3.30;;;;;;;18.43;77.17;100428.52;110069;1278;22202;-58
2023/08/15 03:41:12;;;;;;;12.20;3.30;;;;;;;18.41;77.20;100428.45;110093;1278;22835;-57
2023/08/15 03:43:43;;;;;;;12.60;2.70;;;;;;;18.40;77.14;100432.23;110085;1277;22190;-59
2023/08/15 03:46:14;;;;;;;14.00;3.40;;;;;;;18.39;77.47;100435.11;110125;1277;22189;-60
2023/08/15 03:48:45;;;;;;;10.50;3.30;;;;;;;18.36;77.65;100438.69;110052;1278;22130;-59
2023/08/15 03:51:16;;;;;;;7.90;3.10;;;;;;;18.32;77.75;100448.13;110111;1278;22234;-58
2023/08/15 03:53:47;;;;;;;9.50;3.30;;;;;;;18.25;77.96;100450.10;110077;1278;22224;-60
2023/08/15 03:56:18;;;;;;;13.80;3.90;;;;;;;18.17;78.06;100453.14;110131;1277;23183;-59
2023/08/15 03:58:49;;;;;;;10.80;4.00;;;;;;;18.07;78.17;100457.91;110110;1273;22113;-58
2023/08/15 04:01:20;;;;;;;12.50;4.40;;;;;;;17.97;78.33;100456.80;110213;1278;22143;-60
2023/08/15 04:03:52;;;;;;;10.90;3.80;;;;;;;17.86;78.24;100457.03;110167;1276;22212;-57
2023/08/15 04:06:23;;;;;;;9.70;3.40;;;;;;;17.78;78.40;100452.41;110120;1278;23055;-58
2023/08/15 04:08:54;;;;;;;11.10;3.50;;;;;;;17.77;78.60;100458.03;110119;1278;22404;-59
2023/08/15 04:11:25;;;;;;;8.70;3.10;;;;;;;17.74;78.56;100461.69;110133;1271;22378;-63
2023/08/15 04:13:56;;;;;;;7.90;2.70;;;;;;;17.71;78.72;100462.17;110124;1266;22248;-59
2023/08/15 04:16:26;;;;;;;11.20;4.00;;;;;;;17.70;78.72;100464.85;110127;1271;23091;-57
2023/08/15 04:18:57;;;;;;;11.20;3.00;;;;;;;17.72;78.97;100463.86;110126;1273;22165;-59
2023/08/15 04:21:28;;;;;;;9.20;3.70;;;;;;;17.75;79.25;100459.95;110082;1271;22313;-58
2023/08/15 04:23:59;;;;;;;10.50;3.20;;;;;;;17.77;79.46;100460.18;110132;1276;22198;-58
2023/08/15 04:26:30;;;;;;;12.50;3.80;;;;;;;17.79;79.82;100463.35;110110;1271;22969;-59
2023/08/15 04:29:01;;;;;;;11.00;3.90;;;;;;;17.81;79.95;100463.70;110111;1278;22182;-58
2023/08/15 04:31:32;;;;;;;10.20;3.40;;;;;;;17.83;80.13;100458.40;110112;1278;22356;-59
2023/08/15 04:34:03;;;;;;;8.60;3.30;;;;;;;17.85;80.26;100456.63;110118;1278;23064;-59
2023/08/15 04:36:34;;;;;;;9.10;3.40;;;;;;;17.88;80.22;100457.48;110098;1278;22193;-59
2023/08/15 04:39:06;;;;;;;12.10;5.00;;;;;;;17.91;80.45;100460.74;110122;1276;22144;-58
2023/08/15 04:41:37;;;;;;;11.70;3.80;;;;;;;17.94;80.73;100463.00;110106;1278;22229;-57
2023/08/15 04:44:08;;;;;;;9.20;3.00;;;;;;;17.95;80.77;100464.73;110109;1278;22234;-58
2023/08/15 04:46:38;;;;;;;16.70;4.20;;;;;;;17.99;80.83;100463.82;110114;1278;22222;-58
2023/08/15 04:49:09;;;;;;;12.90;3.40;;;;;;;18.04;80.99;100463.21;110130;1278;22213;-60
2023/08/15 04:51:41;;;;;;;12.50;3.70;;;;;;;18.08;81.08;100467.19;110107;1278;22181;-59
2023/08/15 04:54:11;;;;;;;11.60;3.60;;;;;;;18.14;81.12;100465.40;110119;1278;22172;-59
2023/08/15 04:56:42;;;;;;;11.40;4.50;;;;;;;18.20;81.22;100462.98;110135;1278;22196;-59
2023/08/15 04:59:14;;;;;;;12.40;3.70;;;;;;;18.28;81.31;100466.05;110115;1276;23215;-59
2023/08/15 05:01:45;;;;;;;10.20;3.90;;;;;;;18.37;81.40;100462.93;110120;1278;22195;-60
2023/08/15 05:04:16;;;;;;;9.50;3.70;;;;;;;18.45;81.45;100465.61;110124;1278;22167;-58
2023/08/15 05:06:47;;;;;;;9.40;3.80;;;;;;;18.52;81.46;100471.98;110049;1268;22934;-60
2023/08/15 05:09:18;;;;;;;14.50;4.10;;;;;;;18.60;81.63;100462.96;110085;1274;23302;-59
2023/08/15 05:11:49;;;;;;;12.50;3.60;;;;;;;18.66;81.64;100462.39;110120;1278;22229;-59
2023/08/15 05:14:20;;;;;;;12.30;3.40;;;;;;;18.72;81.68;100466.79;110111;1278;23252;-57
2023/08/15 05:16:51;;;;;;;12.90;3.90;;;;;;;18.77;81.72;100471.92;110108;1278;22174;-59
2023/08/15 05:19:21;;;;;;;10.80;3.70;;;;;;;18.85;81.95;100469.17;110109;1278;22280;-58
2023/08/15 05:21:52;;;;;;;10.90;3.00;;;;;;;18.96;81.94;100464.41;110131;1278;22187;-58
2023/08/15 05:24:25;;;;;;;11.80;3.50;;;;;;;19.09;81.81;100462.92;110132;1278;22327;-59
2023/08/15 05:26:55;;;;;;;10.80;3.60;;;;;;;19.20;81.89;100465.02;110111;1267;22407;-59
2023/08/15 05:29:26;;;;;;;8.30;3.40;;;;;;;19.31;81.85;100467.38;110134;1276;22326;-59
2023/08/15 05:31:57;;;;;;;10.80;3.40;;;;;;;19.39;81.76;100467.30;110117;1276;22448;-59
2023/08/15 05:34:28;;;;;;;10.90;3.70;;;;;;;19.49;81.86;100468.45;110137;1271;22187;-59
2023/08/15 05:36:59;;;;;;;9.90;3.60;;;;;;;19.58;81.89;100465.29;110105;1275;22204;-58
2023/08/15 05:39:30;;;;;;;16.40;3.40;;;;;;;19.66;81.76;100463.15;110108;1274;22279;-60
2023/08/15 05:42:00;;;;;;;13.80;4.10;;;;;;;19.73;81.69;100464.40;110093;1276;22210;-57
2023/08/15 05:44:31;;;;;;;10.60;3.10;;;;;;;19.85;81.87;100469.63;110145;1278;22308;-58
2023/08/15 05:47:02;;;;;;;11.40;3.60;;;;;;;19.96;81.92;100470.91;110128;1278;23040;-59
2023/08/15 05:49:33;;;;;;;17.60;3.90;;;;;;;20.07;81.93;100472.73;110107;1271;22202;-60
2023/08/15 05:52:04;;;;;;;12.30;2.70;;;;;;;20.20;81.57;100478.98;110080;1271;22172;-59
2023/08/15 05:54:35;;;;;;;9.10;3.00;;;;;;;20.30;81.21;100479.86;110126;1274;22970;-59
2023/08/15 05:57:06;;;;;;;10.60;3.70;;;;;;;20.37;80.90;100488.36;110071;1276;22220;-57
2023/08/15 05:59:37;;;;;;;10.40;3.20;;;;;;;20.43;80.87;100495.31;110081;1278;22258;-59
2023/08/15 06:02:08;;;;;;;12.40;3.40;;;;;;;20.51;80.81;100497.39;110115;1276;22252;-57
2023/08/15 06:04:39;;;;;;;11.30;3.50;;;;;;;20.62;80.80;100503.29;110129;1277;22165;-59
2023/08/15 06:07:12;;;;;;;9.80;3.10;;;;;;;20.73;80.58;100502.36;110129;1278;22158;-60
2023/08/15 06:09:43;;;;;;;13.80;4.20;;;;;;;20.84;80.55;100503.29;110030;1278;22169;-58
2023/08/15 06:12:14;;;;;;;11.40;3.30;;;;;;;20.97;80.38;100498.55;110119;1278;22145;-60
2023/08/15 06:14:45;;;;;;;13.20;3.60;;;;;;;21.08;80.32;100491.98;110131;1278;22139;-59
2023/08/15 06:17:17;;;;;;;12.30;3.20;;;;;;;21.18;80.10;100494.98;110103;1276;22282;-58
2023/08/15 06:19:48;;;;;;;7.60;2.50;;;;;;;21.26;79.96;100493.16;110052;1278;22326;-58
2023/08/15 06:22:19;;;;;;;13.10;2.80;;;;;;;21.34;79.80;100495.05;110106;1277;22192;-59
2023/08/15 06:24:50;;;;;;;12.00;2.90;;;;;;;21.42;79.40;100498.91;110120;1278;23285;-59
2023/08/15 06:27:21;;;;;;;7.60;2.70;;;;;;;21.52;79.25;100500.40;110125;1278;22201;-59
2023/08/15 06:29:52;;;;;;;11.80;3.00;;;;;;;21.63;79.25;100494.02;110110;1278;22193;-59
2023/08/15 06:32:28;;;;;;;6.30;2.20;;;;;;;21.73;78.69;100491.45;110111;1278;22194;-58
2023/08/15 06:35:00;;;;;;;10.20;2.70;;;;;;;21.83;78.30;100494.27;110133;1278;22153;-58
2023/08/15 06:37:31;;;;;;;11.20;3.10;;;;;;;21.91;77.92;100495.99;110150;1276;22396;-59
2023/08/15 06:40:03;;;;;;;9.30;2.80;;;;;;;21.99;78.20;100498.85;110134;1272;22234;-59
2023/08/15 06:42:34;;;;;;;6.80;1.90;;;;;;;22.08;78.01;100493.83;110141;1273;22167;-60
2023/08/15 06:45:08;;;;;;;5.60;2.00;;;;;;;22.18;77.71;100492.80;110093;1276;22388;-59
2023/08/15 06:47:39;;;;;;;6.50;2.30;;;;;;;22.29;77.56;100491.23;110131;1276;22956;-58
2023/08/15 06:50:11;;;;;;;5.80;2.10;;;;;;;22.39;77.13;100489.64;110104;1278;22284;-60
2023/08/15 06:52:42;;;;;;;6.70;2.40;;;;;;;22.47;76.97;100487.75;110109;1273;23063;-59
2023/08/15 06:55:13;;;;;;;9.70;2.60;;;;;;;22.56;76.50;100490.83;110094;1273;22229;-60
2023/08/15 06:57:44;;;;;;;11.50;2.10;;;;;;;22.64;76.29;100494.71;110056;1274;22232;-60
2023/08/15 07:00:17;;;;;;;9.60;2.40;;;;;;;22.75;76.25;100500.22;110114;1276;23358;-59
2023/08/15 07:02:48;;;;;;;9.10;2.10;;;;;;;22.87;76.18;100497.38;110047;1276;22155;-60
2023/08/15 07:05:19;;;;;;;5.70;1.90;;;;;;;22.97;75.72;100498.12;110134;1274;22161;-61
2023/08/15 07:07:49;;;;;;;7.60;2.00;;;;;;;23.07;75.20;100498.35;110142;1278;22342;-58
2023/08/15 07:10:21;;;;;;;9.10;2.10;;;;;;;23.17;74.67;100498.08;110122;1276;22225;-59
2023/08/15 07:12:52;;;;;;;10.90;2.70;;;;;;;23.27;74.95;100494.05;110112;1278;22226;-61
2023/08/15 07:15:22;;;;;;;6.70;2.30;;;;;;;23.38;75.10;100493.92;110130;1277;23311;-60
2023/08/15 07:17:53;;;;;;;6.60;1.90;;;;;;;23.51;74.65;100491.38;110067;1274;22265;-59
2023/08/15 07:20:25;;;;;;;12.10;2.30;;;;;;;23.60;74.15;100491.73;110023;1276;22530;-60
2023/08/15 07:22:56;;;;;;;7.30;1.80;;;;;;;23.69;73.41;100495.68;110047;1277;22173;-58
2023/08/15 07:25:27;;;;;;;5.70;1.70;;;;;;;23.79;73.07;100495.83;110140;1273;22365;-61
2023/08/15 07:27:58;;;;;;;4.60;1.50;;;;;;;23.87;72.49;100497.34;110125;1276;23240;-59
2023/08/15 07:30:29;;;;;;;6.50;1.80;;;;;;;23.95;72.30;100496.94;110125;1278;22342;-58
2023/08/15 07:32:59;;;;;;;9.80;2.30;;;;;;;24.03;72.29;100501.61;110134;1276;22181;-60
2023/08/15 07:35:30;;;;;;;7.10;2.30;;;;;;;24.14;72.13;100500.77;110145;1273;22410;-60
2023/08/15 07:38:01;;;;;;;6.30;2.00;;;;;;;24.21;71.48;100502.11;110089;1273;22157;-60
2023/08/15 07:40:32;;;;;;;9.90;1.80;;;;;;;24.30;71.56;100499.73;110047;1275;22964;-60
2023/08/15 07:43:05;;;;;;;6.80;2.10;;;;;;;24.40;71.33;100501.98;110073;1274;22901;-60
2023/08/15 07:45:36;;;;;;;5.30;1.50;;;;;;;24.52;71.16;100498.42;110150;1271;22208;-61
2023/08/15 07:48:08;;;;;;;5.30;1.80;;;;;;;24.63;69.98;100495.28;110072;1278;22261;-60
2023/08/15 07:50:39;;;;;;;7.20;1.70;;;;;;;24.73;70.30;100498.39;110088;1273;22275;-60
2023/08/15 07:53:10;;;;;;;6.80;1.70;;;;;;;24.84;69.70;100497.63;110090;1276;22218;-59
2023/08/15 07:55:41;;;;;;;6.40;1.30;;;;;;;24.92;69.06;100493.51;110155;1278;22873;-60
2023/08/15 07:58:11;;;;;;;9.60;1.70;;;;;;;25.00;68.44;100497.76;110091;1278;22256;-59
2023/08/15 08:00:43;;;;;;;6.40;1.60;;;;;;;25.09;68.05;100501.17;110120;1273;22236;-59
2023/08/15 08:03:13;;;;;;;8.10;1.50;;;;;;;25.19;67.67;100501.55;110116;1278;22150;-60
2023/08/15 08:05:45;;;;;;;5.20;1.40;;;;;;;25.30;67.18;100507.70;110138;1278;22157;-59
2023/08/15 08:08:17;;;;;;;5.70;2.00;;;;;;;25.42;66.44;100503.48;110061;1279;22167;-59
2023/08/15 08:10:48;;;;;;;4.20;1.50;;;;;;;25.53;66.36;100501.52;110076;1270;22941;-59
2023/08/15 08:13:19;;;;;;;8.50;1.70;;;;;;;25.61;66.05;100503.59;110148;1278;22168;-59
2023/08/15 08:15:50;;;;;;;4.70;1.50;;;;;;;25.70;65.59;100508.19;110083;1278;22826;-61
2023/08/15 08:18:21;;;;;;;6.50;1.60;;;;;;;25.77;65.52;100512.13;110126;1278;22193;-59
2023/08/15 08:20:52;;;;;;;4.00;1.40;;;;;;;25.85;65.19;100510.33;110115;1279;22658;-60
2023/08/15 08:23:24;;;;;;;7.20;1.80;;;;;;;25.93;64.77;100507.70;110050;1278;22308;-61
2023/08/15 08:25:55;;;;;;;6.80;1.60;;;;;;;25.97;64.06;100513.55;110120;1278;22433;-60
2023/08/15 08:28:26;;;;;;;6.10;1.40;;;;;;;26.02;63.20;100505.77;110086;1278;22364;-59
2023/08/15 08:31:02;;;;;;;4.30;1.50;;;;;;;26.09;62.70;100507.89;110113;1278;22197;-60
2023/08/15 08:33:33;;;;;;;7.30;1.50;;;;;;;26.17;62.45;100504.56;110145;1271;22177;-60
2023/08/15 08:36:05;;;;;;;8.50;1.50;;;;;;;26.24;62.40;100504.48;110141;1276;22173;-60
2023/08/15 08:38:36;;;;;;;6.20;1.80;;;;;;;26.32;62.07;100506.34;110132;1278;22154;-60
2023/08/15 08:41:07;;;;;;;5.20;1.40;;;;;;;26.39;61.75;100501.83;110131;1276;22179;-60
2023/08/15 08:43:40;;;;;;;6.50;1.60;;;;;;;26.46;61.62;100497.02;110105;1273;22201;-59
2023/08/15 08:46:11;;;;;;;4.40;1.40;;;;;;;26.56;61.54;100493.98;110141;1278;22176;-60
2023/08/15 08:48:44;;;;;;;7.00;1.80;;;;;;;26.66;61.65;100493.70;110141;1278;22209;-61
2023/08/15 08:51:16;;;;;;;6.70;1.60;;;;;;;26.76;61.58;100496.88;110039;1264;22180;-60
2023/08/15 08:53:48;;;;;;;6.20;1.30;;;;;;;26.84;61.64;100498.44;110086;1278;22183;-61
2023/08/15 08:56:22;;;;;;;6.70;1.40;;;;;;;26.94;60.50;100494.83;110155;1278;22280;-60
2023/08/15 08:59:03;;;;;;;4.80;1.40;;;;;;;27.02;60.13;100494.06;110145;1276;22877;-59
2023/08/15 09:01:38;;;;;;;13.80;2.60;;;;;;;27.08;59.59;100492.17;110156;1278;22343;-61
2023/08/15 09:04:09;;;;;;;5.00;1.40;;;;;;;27.15;59.63;100490.30;110143;1272;22814;-59
2023/08/15 09:06:40;;;;;;;4.50;1.20;;;;;;;27.24;59.66;100488.29;110124;1278;22257;-59
2023/08/15 09:09:11;;;;;;;6.10;1.60;;;;;;;27.32;58.90;100485.81;110168;1271;23112;-61
2023/08/15 09:11:46;;;;;;;7.70;1.40;;;;;;;27.39;58.92;100485.28;110124;1273;22217;-61
2023/08/15 09:14:19;;;;;;;7.10;1.40;;;;;;;27.49;58.60;100486.88;110157;1278;22177;-61
2023/08/15 09:16:51;;;;;;;5.60;1.30;;;;;;;27.56;58.41;100487.55;110152;1276;22422;-61
2023/08/15 09:19:22;;;;;;;5.30;1.60;;;;;;;27.62;58.48;100486.67;110148;1278;22209;-60
2023/08/15 09:21:52;;;;;;;6.30;1.60;;;;;;;27.67;58.25;100480.91;110130;1278;22417;-59
2023/08/15 09:24:28;;;;;;;6.50;1.20;;;;;;;27.74;57.99;100483.02;110146;1278;22290;-60
2023/08/15 09:27:05;;;;;;;5.20;1.20;;;;;;;27.80;57.06;100479.77;110158;1276;22219;-59
2023/08/15 09:29:37;;;;;;;5.80;1.20;;;;;;;27.88;56.76;100483.89;110131;1276;23121;-61
2023/08/15 09:32:10;;;;;;;4.70;1.40;;;;;;;27.94;56.78;100480.39;110156;1278;22237;-60
2023/08/15 09:34:41;;;;;;;4.90;1.30;;;;;;;28.02;56.69;100476.13;110139;1278;22194;-60
2023/08/15 09:37:13;;;;;;;5.80;1.40;;;;;;;28.10;56.30;100477.47;110140;1278;22226;-60
2023/08/15 09:39:45;;;;;;;6.90;1.30;;;;;;;28.17;55.96;100479.16;110123;1278;22215;-61
2023/08/15 09:42:19;;;;;;;5.00;1.30;;;;;;;28.25;55.75;100474.64;110165;1278;22280;-60
2023/08/15 09:44:52;;;;;;;6.70;1.40;;;;;;;28.32;55.34;100474.52;110111;1271;23117;-59
2023/08/15 09:47:23;;;;;;;6.30;1.40;;;;;;;28.39;54.92;100476.67;110125;1278;23220;-61
2023/08/15 09:49:55;;;;;;;6.10;1.40;;;;;;;28.46;54.53;100471.45;110098;1268;22175;-60
2023/08/15 09:52:28;;;;;;;4.80;1.30;;;;;;;28.53;54.74;100475.14;110085;1278;22340;-62
2023/08/15 09:55:00;;;;;;;5.10;1.70;;;;;;;28.61;53.90;100473.62;110116;1278;23403;-60
2023/08/15 09:57:31;;;;;;;6.00;1.40;;;;;;;28.67;53.28;100473.45;110144;1278;22437;-61
2023/08/15 10:00:03;;;;;;;3.80;1.00;;;;;;;28.73;52.85;100476.02;110059;1257;22259;-59
2023/08/15 10:02:43;;;;;;;5.70;1.20;;;;;;;28.78;52.81;100474.27;110112;1278;22212;-59
2023/08/15 10:05:17;;;;;;;9.40;1.50;;;;;;;28.86;52.43;100478.17;110085;1274;22972;-61
2023/08/15 10:07:50;;;;;;;8.10;1.70;;;;;;;28.93;52.03;100472.92;110119;1271;22198;-61
2023/08/15 10:10:22;;;;;;;5.60;1.40;;;;;;;28.97;51.86;100468.80;110076;1273;22864;-61
2023/08/15 10:12:55;;;;;;;5.50;1.60;;;;;;;29.02;51.80;100466.91;110064;1276;22241;-65
2023/08/15 10:15:27;;;;;;;5.50;1.30;;;;;;;29.12;51.12;100466.66;110113;1271;22792;-60
2023/08/15 10:17:59;;;;;;;5.10;1.50;;;;;;;29.19;50.74;100465.35;110077;1271;22198;-61
2023/08/15 10:20:37;;;;;;;5.10;1.20;;;;;;;29.27;50.64;100462.76;110112;1271;22649;-62
2023/08/15 10:23:10;;;;;;;4.50;1.40;;;;;;;29.34;50.84;100458.98;110011;1274;23304;-61
2023/08/15 10:25:42;;;;;;;7.00;1.50;;;;;;;29.38;50.59;100454.67;110111;1277;22371;-60
2023/08/15 10:28:13;;;;;;;5.50;1.40;;;;;;;29.41;50.30;100454.81;110108;1271;22194;-60
2023/08/15 10:30:46;;;;;;;4.90;1.20;;;;;;;29.44;49.83;100452.70;110118;1271;23016;-61
2023/08/15 10:33:21;;;;;;;4.50;1.10;;;;;;;29.47;49.30;100449.45;110073;1271;22930;-61
2023/08/15 10:36:08;;;;;;;5.00;1.10;;;;;;;29.47;49.06;100449.33;110082;1278;22146;-61
2023/08/15 10:38:43;;;;;;;4.60;1.20;;;;;;;29.48;48.67;100454.75;110086;1278;22222;-60
2023/08/15 10:41:17;;;;;;;7.00;1.40;;;;;;;29.52;48.60;100459.22;110116;1273;22186;-61
2023/08/15 10:43:50;;;;;;;5.20;1.50;;;;;;;29.58;48.09;100461.33;110100;1272;22339;-59
2023/08/15 10:46:27;;;;;;;4.20;1.10;;;;;;;29.61;47.69;100456.54;110143;1271;22172;-60
2023/08/15 10:49:05;;;;;;;3.70;1.10;;;;;;;29.67;47.74;100454.79;110110;1278;22203;-60
2023/08/15 10:51:38;;;;;;;3.80;1.10;;;;;;;29.71;47.44;100453.77;110133;1276;23314;-61
2023/08/15 10:54:10;;;;;;;7.10;1.00;;;;;;;29.77;47.67;100451.95;110011;1275;22230;-60
2023/08/15 10:56:42;;;;;;;9.30;1.30;;;;;;;29.84;47.17;100449.59;110022;1278;22777;-61
2023/08/15 10:59:15;;;;;;;4.80;1.20;;;;;;;29.92;47.05;100446.28;110073;1278;22254;-61
2023/08/15 11:01:47;;;;;;;6.50;1.30;;;;;;;30.00;46.50;100449.17;110061;1278;22161;-61
2023/08/15 11:04:19;;;;;;;4.90;1.30;;;;;;;30.05;47.02;100449.10;110138;1278;22225;-62
2023/08/15 11:06:52;;;;;;;3.50;1.10;;;;;;;30.08;46.80;100447.86;110075;1276;23061;-61
2023/08/15 11:09:31;;;;;;;6.50;1.30;;;;;;;30.10;46.13;100444.59;110121;1278;22975;-62
2023/08/15 11:12:08;;;;;;;3.50;1.00;;;;;;;30.12;45.68;100448.20;110111;1278;22793;-61
2023/08/15 11:14:39;;;;;;;5.60;1.00;;;;;;;30.15;45.52;100446.65;110060;1278;22157;-61
2023/08/15 11:17:12;;;;;;;5.40;1.10;;;;;;;30.20;44.59;100444.40;110125;1278;22219;-61
2023/08/15 11:19:44;;;;;;;5.40;1.00;;;;;;;30.22;44.46;100442.58;110112;1278;22164;-61
2023/08/15 11:22:16;;;;;;;6.10;1.20;;;;;;;30.26;44.42;100438.83;105999;1278;5411319;-61
2023/08/15 11:24:52;;;;;;;7.80;1.10;;;;;;;30.32;44.30;100436.52;110076;1278;22870;-61
2023/08/15 11:27:23;;;;;;;5.50;1.20;;;;;;;30.36;43.93;100429.46;110029;1264;22758;-61
2023/08/15 11:29:59;;;;;;;4.70;1.10;;;;;;;30.38;43.94;100428.55;110097;1266;22332;-62
2023/08/15 11:32:31;;;;;;;4.40;1.10;;;;;;;30.41;43.88;100429.24;110102;1274;22867;-62
2023/08/15 11:35:03;;;;;;;5.60;1.20;;;;;;;30.46;43.66;100431.55;110106;1277;22268;-61